sensor_id;sensor_type;location;lat;lon;timestamp;temperature;humidity
32097;DHT22;18610;49.916;8.284;2023-03-01T00:02:14;1.00;99.90
32097;DHT22;18610;49.916;8.284;2023-03-01T00:04:42;1.00;99.90
32097;DHT22;18610;49.916;8.284;2023-03-01T00:07:08;1.00;99.90
32097;DHT22;18610;49.916;8.284;2023-03-01T00:09:36;1.00;99.90
32097;DHT22;18610;49.916;8.284;2023-03-01T00:12:03;1.00;99.90
32097;DHT22;18610;49.916;8.284;2023-03-01T00:14:30;1.00;99.90
32097;DHT22;18610;49.916;8.284;2023-03-01T00:16:57;1.00;99.90
32097;DHT22;18610;49.916;8.284;2023-03-01T00:19:23;0.90;99.90
32097;DHT22;18610;49.916;8.284;2023-03-01T00:21:51;0.90;99.90
32097;DHT22;18610;49.916;8.284;2023-03-01T00:24:18;0.80;99.90
32097;DHT22;18610;49.916;8.284;2023-03-01T00:26:45;0.80;99.90
32097;DHT22;18610;49.916;8.284;2023-03-01T00:29:11;0.70;99.90
32097;DHT22;18610;49.916;8.284;2023-03-01T00:31:38;0.70;99.90
32097;DHT22;18610;49.916;8.284;2023-03-01T00:34:05;0.70;99.90
32097;DHT22;18610;49.916;8.284;2023-03-01T00:36:35;0.70;99.90
32097;DHT22;18610;49.916;8.284;2023-03-01T00:39:04;0.70;99.90
32097;DHT22;18610;49.916;8.284;2023-03-01T00:41:31;0.60;99.90
32097;DHT22;18610;49.916;8.284;2023-03-01T00:43:59;0.60;99.90
32097;DHT22;18610;49.916;8.284;2023-03-01T00:46:27;0.60;99.90
32097;DHT22;18610;49.916;8.284;2023-03-01T00:48:55;0.60;99.90
32097;DHT22;18610;49.916;8.284;2023-03-01T00:51:23;0.60;99.90
32097;DHT22;18610;49.916;8.284;2023-03-01T00:53:51;0.60;99.90
32097;DHT22;18610;49.916;8.284;2023-03-01T00:56:20;0.60;99.90
32097;DHT22;18610;49.916;8.284;2023-03-01T00:58:47;0.60;99.90
32097;DHT22;18610;49.916;8.284;2023-03-01T01:01:16;0.60;99.90
32097;DHT22;18610;49.916;8.284;2023-03-01T01:03:45;0.60;99.90
32097;DHT22;18610;49.916;8.284;2023-03-01T01:06:14;0.60;99.90
32097;DHT22;18610;49.916;8.284;2023-03-01T01:08:41;0.60;99.90
32097;DHT22;18610;49.916;8.284;2023-03-01T01:11:09;0.50;99.90
32097;DHT22;18610;49.916;8.284;2023-03-01T01:13:37;0.50;99.90
32097;DHT22;18610;49.916;8.284;2023-03-01T01:16:04;0.50;99.90
32097;DHT22;18610;49.916;8.284;2023-03-01T01:18:31;0.50;99.90
32097;DHT22;18610;49.916;8.284;2023-03-01T01:21:04;0.40;99.90
32097;DHT22;18610;49.916;8.284;2023-03-01T01:23:31;0.40;99.90
32097;DHT22;18610;49.916;8.284;2023-03-01T01:26:02;0.40;99.90
32097;DHT22;18610;49.916;8.284;2023-03-01T01:28:29;0.40;99.90
32097;DHT22;18610;49.916;8.284;2023-03-01T01:30:57;0.40;99.90
32097;DHT22;18610;49.916;8.284;2023-03-01T01:33:23;0.40;99.90
32097;DHT22;18610;49.916;8.284;2023-03-01T01:35:50;0.40;99.90
32097;DHT22;18610;49.916;8.284;2023-03-01T01:38:17;0.40;99.90
32097;DHT22;18610;49.916;8.284;2023-03-01T01:40:44;0.40;99.90
32097;DHT22;18610;49.916;8.284;2023-03-01T01:43:18;0.40;99.90
32097;DHT22;18610;49.916;8.284;2023-03-01T01:45:45;0.40;99.90
32097;DHT22;18610;49.916;8.284;2023-03-01T01:48:18;0.40;99.90
32097;DHT22;18610;49.916;8.284;2023-03-01T01:50:49;0.50;99.90
32097;DHT22;18610;49.916;8.284;2023-03-01T01:53:17;0.50;99.90
32097;DHT22;18610;49.916;8.284;2023-03-01T01:55:49;0.50;99.90
32097;DHT22;18610;49.916;8.284;2023-03-01T01:58:19;0.50;99.90
32097;DHT22;18610;49.916;8.284;2023-03-01T02:00:47;0.50;99.90
32097;DHT22;18610;49.916;8.284;2023-03-01T02:03:18;0.50;99.90
32097;DHT22;18610;49.916;8.284;2023-03-01T02:05:50;0.50;99.90
32097;DHT22;18610;49.916;8.284;2023-03-01T02:08:20;0.60;99.90
32097;DHT22;18610;49.916;8.284;2023-03-01T02:10:48;0.50;99.90
32097;DHT22;18610;49.916;8.284;2023-03-01T02:13:15;0.60;99.90
32097;DHT22;18610;49.916;8.284;2023-03-01T02:15:42;0.50;99.90
32097;DHT22;18610;49.916;8.284;2023-03-01T02:18:12;0.50;99.90
32097;DHT22;18610;49.916;8.284;2023-03-01T02:20:48;0.50;99.90
32097;DHT22;18610;49.916;8.284;2023-03-01T02:23:17;0.60;99.90
32097;DHT22;18610;49.916;8.284;2023-03-01T02:25:49;0.60;99.90
32097;DHT22;18610;49.916;8.284;2023-03-01T02:28:26;0.60;99.90
32097;DHT22;18610;49.916;8.284;2023-03-01T02:30:53;0.60;99.90
32097;DHT22;18610;49.916;8.284;2023-03-01T02:33:38;0.70;99.90
32097;DHT22;18610;49.916;8.284;2023-03-01T02:36:09;0.70;99.90
32097;DHT22;18610;49.916;8.284;2023-03-01T02:38:36;0.70;99.90
32097;DHT22;18610;49.916;8.284;2023-03-01T02:41:04;0.70;99.90
32097;DHT22;18610;49.916;8.284;2023-03-01T02:43:34;0.70;99.90
32097;DHT22;18610;49.916;8.284;2023-03-01T02:46:06;0.70;99.90
32097;DHT22;18610;49.916;8.284;2023-03-01T02:48:41;0.70;99.90
32097;DHT22;18610;49.916;8.284;2023-03-01T02:51:18;0.70;99.90
32097;DHT22;18610;49.916;8.284;2023-03-01T02:53:56;0.60;99.90
32097;DHT22;18610;49.916;8.284;2023-03-01T02:56:26;0.60;99.90
32097;DHT22;18610;49.916;8.284;2023-03-01T02:58:54;0.60;99.90
32097;DHT22;18610;49.916;8.284;2023-03-01T03:01:27;0.60;99.90
32097;DHT22;18610;49.916;8.284;2023-03-01T03:04:06;0.70;99.90
32097;DHT22;18610;49.916;8.284;2023-03-01T03:06:33;0.70;99.90
32097;DHT22;18610;49.916;8.284;2023-03-01T03:09:00;0.60;99.90
32097;DHT22;18610;49.916;8.284;2023-03-01T03:11:27;0.60;99.90
32097;DHT22;18610;49.916;8.284;2023-03-01T03:13:55;0.60;99.90
32097;DHT22;18610;49.916;8.284;2023-03-01T03:16:23;0.50;99.90
32097;DHT22;18610;49.916;8.284;2023-03-01T03:18:50;0.50;99.90
32097;DHT22;18610;49.916;8.284;2023-03-01T03:21:17;0.50;99.90
32097;DHT22;18610;49.916;8.284;2023-03-01T03:23:44;0.50;99.90
32097;DHT22;18610;49.916;8.284;2023-03-01T03:26:10;0.50;99.90
32097;DHT22;18610;49.916;8.284;2023-03-01T03:28:40;0.60;99.90
32097;DHT22;18610;49.916;8.284;2023-03-01T03:31:08;0.50;99.90
32097;DHT22;18610;49.916;8.284;2023-03-01T03:33:35;0.50;99.90
32097;DHT22;18610;49.916;8.284;2023-03-01T03:36:02;0.60;99.90
32097;DHT22;18610;49.916;8.284;2023-03-01T03:38:29;0.50;99.90
32097;DHT22;18610;49.916;8.284;2023-03-01T03:41:02;0.60;99.90
32097;DHT22;18610;49.916;8.284;2023-03-01T03:43:30;0.60;99.90
32097;DHT22;18610;49.916;8.284;2023-03-01T03:45:57;0.60;99.90
32097;DHT22;18610;49.916;8.284;2023-03-01T03:48:26;0.50;99.90
32097;DHT22;18610;49.916;8.284;2023-03-01T03:50:54;0.50;99.90
32097;DHT22;18610;49.916;8.284;2023-03-01T03:53:22;0.50;99.90
32097;DHT22;18610;49.916;8.284;2023-03-01T03:55:50;0.50;99.90
32097;DHT22;18610;49.916;8.284;2023-03-01T03:58:18;0.40;99.90
32097;DHT22;18610;49.916;8.284;2023-03-01T04:00:47;0.40;99.90
32097;DHT22;18610;49.916;8.284;2023-03-01T04:03:15;0.40;99.90
32097;DHT22;18610;49.916;8.284;2023-03-01T04:05:45;0.40;99.90
32097;DHT22;18610;49.916;8.284;2023-03-01T04:08:13;0.40;99.90
32097;DHT22;18610;49.916;8.284;2023-03-01T04:10:41;0.40;99.90
32097;DHT22;18610;49.916;8.284;2023-03-01T04:13:11;0.50;99.90
32097;DHT22;18610;49.916;8.284;2023-03-01T04:15:38;0.40;99.90
32097;DHT22;18610;49.916;8.284;2023-03-01T04:18:05;0.40;99.90
32097;DHT22;18610;49.916;8.284;2023-03-01T04:20:34;0.40;99.90
32097;DHT22;18610;49.916;8.284;2023-03-01T04:23:04;0.50;99.90
32097;DHT22;18610;49.916;8.284;2023-03-01T04:25:37;0.50;99.90
32097;DHT22;18610;49.916;8.284;2023-03-01T04:28:03;0.50;99.90
32097;DHT22;18610;49.916;8.284;2023-03-01T04:30:30;0.50;99.90
32097;DHT22;18610;49.916;8.284;2023-03-01T04:33:01;0.50;99.90
32097;DHT22;18610;49.916;8.284;2023-03-01T04:35:28;0.40;99.90
32097;DHT22;18610;49.916;8.284;2023-03-01T04:37:55;0.50;99.90
32097;DHT22;18610;49.916;8.284;2023-03-01T04:40:23;0.40;99.90
32097;DHT22;18610;49.916;8.284;2023-03-01T04:42:50;0.40;99.90
32097;DHT22;18610;49.916;8.284;2023-03-01T04:45:17;0.40;99.90
32097;DHT22;18610;49.916;8.284;2023-03-01T04:47:45;0.40;99.90
32097;DHT22;18610;49.916;8.284;2023-03-01T04:50:14;0.30;99.90
32097;DHT22;18610;49.916;8.284;2023-03-01T04:52:41;0.30;99.90
32097;DHT22;18610;49.916;8.284;2023-03-01T04:55:08;0.20;99.90
32097;DHT22;18610;49.916;8.284;2023-03-01T04:57:37;0.20;99.90
32097;DHT22;18610;49.916;8.284;2023-03-01T05:00:04;0.20;99.90
32097;DHT22;18610;49.916;8.284;2023-03-01T05:02:46;0.20;99.90
32097;DHT22;18610;49.916;8.284;2023-03-01T05:05:13;0.10;99.90
32097;DHT22;18610;49.916;8.284;2023-03-01T05:07:40;0.10;99.90
32097;DHT22;18610;49.916;8.284;2023-03-01T05:10:07;0.10;99.90
32097;DHT22;18610;49.916;8.284;2023-03-01T05:12:34;0.10;99.90
32097;DHT22;18610;49.916;8.284;2023-03-01T05:15:05;0.20;99.90
32097;DHT22;18610;49.916;8.284;2023-03-01T05:17:32;0.20;99.90
32097;DHT22;18610;49.916;8.284;2023-03-01T05:19:59;0.20;99.90
32097;DHT22;18610;49.916;8.284;2023-03-01T05:22:26;0.20;99.90
32097;DHT22;18610;49.916;8.284;2023-03-01T05:24:53;0.20;99.90
32097;DHT22;18610;49.916;8.284;2023-03-01T05:27:20;0.20;99.90
32097;DHT22;18610;49.916;8.284;2023-03-01T05:29:47;0.30;99.90
32097;DHT22;18610;49.916;8.284;2023-03-01T05:32:16;0.30;99.90
32097;DHT22;18610;49.916;8.284;2023-03-01T05:34:43;0.30;99.90
32097;DHT22;18610;49.916;8.284;2023-03-01T05:37:11;0.30;99.90
32097;DHT22;18610;49.916;8.284;2023-03-01T05:39:39;0.30;99.90
32097;DHT22;18610;49.916;8.284;2023-03-01T05:42:10;0.30;99.90
32097;DHT22;18610;49.916;8.284;2023-03-01T05:44:37;0.30;99.90
32097;DHT22;18610;49.916;8.284;2023-03-01T05:47:04;0.30;99.90
32097;DHT22;18610;49.916;8.284;2023-03-01T05:49:32;0.30;99.90
32097;DHT22;18610;49.916;8.284;2023-03-01T05:52:00;0.20;99.90
32097;DHT22;18610;49.916;8.284;2023-03-01T05:54:26;0.30;99.90
32097;DHT22;18610;49.916;8.284;2023-03-01T05:56:53;0.20;99.90
32097;DHT22;18610;49.916;8.284;2023-03-01T05:59:20;0.20;99.90
32097;DHT22;18610;49.916;8.284;2023-03-01T06:01:46;0.20;99.90
32097;DHT22;18610;49.916;8.284;2023-03-01T06:04:13;0.20;99.90
32097;DHT22;18610;49.916;8.284;2023-03-01T06:06:41;0.20;99.90
32097;DHT22;18610;49.916;8.284;2023-03-01T06:09:08;0.20;99.90
32097;DHT22;18610;49.916;8.284;2023-03-01T06:11:35;0.20;99.90
32097;DHT22;18610;49.916;8.284;2023-03-01T06:14:02;0.20;99.90
32097;DHT22;18610;49.916;8.284;2023-03-01T06:16:29;0.20;99.90
32097;DHT22;18610;49.916;8.284;2023-03-01T06:18:56;0.20;99.90
32097;DHT22;18610;49.916;8.284;2023-03-01T06:21:23;0.20;99.90
32097;DHT22;18610;49.916;8.284;2023-03-01T06:23:51;0.20;99.90
32097;DHT22;18610;49.916;8.284;2023-03-01T06:26:18;0.20;99.90
32097;DHT22;18610;49.916;8.284;2023-03-01T06:28:45;0.30;99.90
32097;DHT22;18610;49.916;8.284;2023-03-01T06:31:11;0.30;99.90
32097;DHT22;18610;49.916;8.284;2023-03-01T06:33:38;0.40;99.90
32097;DHT22;18610;49.916;8.284;2023-03-01T06:36:06;0.40;99.90
32097;DHT22;18610;49.916;8.284;2023-03-01T06:38:32;0.50;99.90
32097;DHT22;18610;49.916;8.284;2023-03-01T06:41:01;0.50;99.90
32097;DHT22;18610;49.916;8.284;2023-03-01T06:43:27;0.60;99.90
32097;DHT22;18610;49.916;8.284;2023-03-01T06:45:54;0.70;99.90
32097;DHT22;18610;49.916;8.284;2023-03-01T06:48:21;0.80;99.90
32097;DHT22;18610;49.916;8.284;2023-03-01T06:50:47;0.90;99.90
32097;DHT22;18610;49.916;8.284;2023-03-01T06:53:14;1.00;99.90
32097;DHT22;18610;49.916;8.284;2023-03-01T06:55:41;1.10;99.90
32097;DHT22;18610;49.916;8.284;2023-03-01T06:58:09;1.20;99.90
32097;DHT22;18610;49.916;8.284;2023-03-01T07:00:36;1.30;99.90
32097;DHT22;18610;49.916;8.284;2023-03-01T07:03:05;1.40;99.90
32097;DHT22;18610;49.916;8.284;2023-03-01T07:05:33;1.50;99.90
32097;DHT22;18610;49.916;8.284;2023-03-01T07:08:00;1.60;99.90
32097;DHT22;18610;49.916;8.284;2023-03-01T07:10:26;1.70;99.90
32097;DHT22;18610;49.916;8.284;2023-03-01T07:12:55;1.70;99.90
32097;DHT22;18610;49.916;8.284;2023-03-01T07:15:23;1.80;99.90
32097;DHT22;18610;49.916;8.284;2023-03-01T07:17:50;1.90;99.90
32097;DHT22;18610;49.916;8.284;2023-03-01T07:20:18;1.90;99.90
32097;DHT22;18610;49.916;8.284;2023-03-01T07:22:47;2.00;99.90
32097;DHT22;18610;49.916;8.284;2023-03-01T07:25:14;2.00;99.90
32097;DHT22;18610;49.916;8.284;2023-03-01T07:27:41;2.00;99.90
32097;DHT22;18610;49.916;8.284;2023-03-01T07:30:09;2.10;99.90
32097;DHT22;18610;49.916;8.284;2023-03-01T07:32:37;2.10;99.90
32097;DHT22;18610;49.916;8.284;2023-03-01T07:35:04;2.20;99.90
32097;DHT22;18610;49.916;8.284;2023-03-01T07:37:31;2.20;99.90
32097;DHT22;18610;49.916;8.284;2023-03-01T07:39:58;2.20;99.90
32097;DHT22;18610;49.916;8.284;2023-03-01T07:42:24;2.20;99.90
32097;DHT22;18610;49.916;8.284;2023-03-01T07:44:51;2.30;99.90
32097;DHT22;18610;49.916;8.284;2023-03-01T07:47:17;2.30;99.90
32097;DHT22;18610;49.916;8.284;2023-03-01T07:49:45;2.40;99.90
32097;DHT22;18610;49.916;8.284;2023-03-01T07:52:12;2.50;99.90
32097;DHT22;18610;49.916;8.284;2023-03-01T07:54:39;2.60;99.90
32097;DHT22;18610;49.916;8.284;2023-03-01T07:57:08;2.60;99.90
32097;DHT22;18610;49.916;8.284;2023-03-01T07:59:35;2.70;99.90
32097;DHT22;18610;49.916;8.284;2023-03-01T08:02:02;2.80;99.90
32097;DHT22;18610;49.916;8.284;2023-03-01T08:04:28;2.80;99.90
32097;DHT22;18610;49.916;8.284;2023-03-01T08:06:56;2.90;99.90
32097;DHT22;18610;49.916;8.284;2023-03-01T08:09:23;3.00;99.90
32097;DHT22;18610;49.916;8.284;2023-03-01T08:11:50;3.10;99.90
32097;DHT22;18610;49.916;8.284;2023-03-01T08:14:16;3.20;99.90
32097;DHT22;18610;49.916;8.284;2023-03-01T08:16:43;3.30;99.90
32097;DHT22;18610;49.916;8.284;2023-03-01T08:19:11;3.50;99.90
32097;DHT22;18610;49.916;8.284;2023-03-01T08:21:38;3.60;99.90
32097;DHT22;18610;49.916;8.284;2023-03-01T08:24:07;3.80;99.90
32097;DHT22;18610;49.916;8.284;2023-03-01T08:26:35;3.90;99.80
32097;DHT22;18610;49.916;8.284;2023-03-01T08:29:03;4.00;99.40
32097;DHT22;18610;49.916;8.284;2023-03-01T08:31:32;4.00;99.20
32097;DHT22;18610;49.916;8.284;2023-03-01T08:34:01;4.20;99.00
32097;DHT22;18610;49.916;8.284;2023-03-01T08:36:30;4.30;98.60
32097;DHT22;18610;49.916;8.284;2023-03-01T08:38:57;4.40;98.60
32097;DHT22;18610;49.916;8.284;2023-03-01T08:41:25;4.60;98.00
32097;DHT22;18610;49.916;8.284;2023-03-01T08:43:52;4.70;97.70
32097;DHT22;18610;49.916;8.284;2023-03-01T08:46:24;4.90;97.40
32097;DHT22;18610;49.916;8.284;2023-03-01T08:48:50;5.10;97.30
32097;DHT22;18610;49.916;8.284;2023-03-01T08:51:19;5.30;97.00
32097;DHT22;18610;49.916;8.284;2023-03-01T08:53:46;5.50;96.60
32097;DHT22;18610;49.916;8.284;2023-03-01T08:56:14;5.70;96.10
32097;DHT22;18610;49.916;8.284;2023-03-01T08:58:43;5.90;95.50
32097;DHT22;18610;49.916;8.284;2023-03-01T09:01:12;6.10;94.80
32097;DHT22;18610;49.916;8.284;2023-03-01T09:03:40;6.30;94.80
32097;DHT22;18610;49.916;8.284;2023-03-01T09:06:07;6.60;93.60
32097;DHT22;18610;49.916;8.284;2023-03-01T09:08:34;6.80;93.20
32097;DHT22;18610;49.916;8.284;2023-03-01T09:11:02;7.00;92.60
32097;DHT22;18610;49.916;8.284;2023-03-01T09:13:29;7.20;91.80
32097;DHT22;18610;49.916;8.284;2023-03-01T09:16:00;7.50;90.60
32097;DHT22;18610;49.916;8.284;2023-03-01T09:18:27;7.70;88.70
32097;DHT22;18610;49.916;8.284;2023-03-01T09:21:00;7.70;87.70
32097;DHT22;18610;49.916;8.284;2023-03-01T09:23:26;7.90;87.80
32097;DHT22;18610;49.916;8.284;2023-03-01T09:25:53;8.00;85.60
32097;DHT22;18610;49.916;8.284;2023-03-01T09:28:20;8.10;85.30
32097;DHT22;18610;49.916;8.284;2023-03-01T09:30:48;8.20;84.30
32097;DHT22;18610;49.916;8.284;2023-03-01T09:33:16;8.30;84.10
32097;DHT22;18610;49.916;8.284;2023-03-01T09:35:43;8.40;83.50
32097;DHT22;18610;49.916;8.284;2023-03-01T09:38:13;8.70;81.80
32097;DHT22;18610;49.916;8.284;2023-03-01T09:40:42;8.80;81.00
32097;DHT22;18610;49.916;8.284;2023-03-01T09:43:18;9.00;78.00
32097;DHT22;18610;49.916;8.284;2023-03-01T09:45:47;9.10;77.80
32097;DHT22;18610;49.916;8.284;2023-03-01T09:48:19;9.20;77.40
32097;DHT22;18610;49.916;8.284;2023-03-01T09:50:49;9.40;77.20
32097;DHT22;18610;49.916;8.284;2023-03-01T09:53:18;9.60;75.00
32097;DHT22;18610;49.916;8.284;2023-03-01T09:55:50;9.70;74.50
32097;DHT22;18610;49.916;8.284;2023-03-01T09:58:34;9.70;74.10
32097;DHT22;18610;49.916;8.284;2023-03-01T10:01:15;10.00;72.80
32097;DHT22;18610;49.916;8.284;2023-03-01T10:03:59;10.10;70.10
32097;DHT22;18610;49.916;8.284;2023-03-01T10:06:26;10.30;69.10
32097;DHT22;18610;49.916;8.284;2023-03-01T10:08:55;10.40;69.00
32097;DHT22;18610;49.916;8.284;2023-03-01T10:11:25;10.50;69.30
32097;DHT22;18610;49.916;8.284;2023-03-01T10:13:58;10.70;69.00
32097;DHT22;18610;49.916;8.284;2023-03-01T10:16:32;10.90;67.80
32097;DHT22;18610;49.916;8.284;2023-03-01T10:19:03;11.00;66.70
32097;DHT22;18610;49.916;8.284;2023-03-01T10:21:34;11.10;65.70
32097;DHT22;18610;49.916;8.284;2023-03-01T10:24:11;11.30;65.10
32097;DHT22;18610;49.916;8.284;2023-03-01T10:26:44;11.40;64.00
32097;DHT22;18610;49.916;8.284;2023-03-01T10:29:13;11.50;62.70
32097;DHT22;18610;49.916;8.284;2023-03-01T10:31:42;11.60;63.00
32097;DHT22;18610;49.916;8.284;2023-03-01T10:34:14;11.70;62.00
32097;DHT22;18610;49.916;8.284;2023-03-01T10:36:42;11.80;61.60
32097;DHT22;18610;49.916;8.284;2023-03-01T10:39:15;11.90;60.80
32097;DHT22;18610;49.916;8.284;2023-03-01T10:41:58;12.00;59.60
32097;DHT22;18610;49.916;8.284;2023-03-01T10:44:40;12.00;59.80
32097;DHT22;18610;49.916;8.284;2023-03-01T10:47:14;12.20;59.40
32097;DHT22;18610;49.916;8.284;2023-03-01T10:49:56;12.20;59.70
32097;DHT22;18610;49.916;8.284;2023-03-01T10:52:27;12.40;59.20
32097;DHT22;18610;49.916;8.284;2023-03-01T10:54:57;12.50;59.00
32097;DHT22;18610;49.916;8.284;2023-03-01T10:57:33;12.60;58.00
32097;DHT22;18610;49.916;8.284;2023-03-01T11:00:16;12.70;57.80
32097;DHT22;18610;49.916;8.284;2023-03-01T11:02:47;12.70;57.90
32097;DHT22;18610;49.916;8.284;2023-03-01T11:05:20;12.80;57.30
32097;DHT22;18610;49.916;8.284;2023-03-01T11:07:50;13.00;56.50
32097;DHT22;18610;49.916;8.284;2023-03-01T11:10:19;13.20;57.00
32097;DHT22;18610;49.916;8.284;2023-03-01T11:12:46;13.30;56.10
32097;DHT22;18610;49.916;8.284;2023-03-01T11:15:23;13.30;55.70
32097;DHT22;18610;49.916;8.284;2023-03-01T11:17:50;13.40;55.20
32097;DHT22;18610;49.916;8.284;2023-03-01T11:20:25;13.40;55.20
32097;DHT22;18610;49.916;8.284;2023-03-01T11:22:53;13.50;55.00
32097;DHT22;18610;49.916;8.284;2023-03-01T11:25:24;13.60;54.90
32097;DHT22;18610;49.916;8.284;2023-03-01T11:27:52;13.80;53.90
32097;DHT22;18610;49.916;8.284;2023-03-01T11:30:23;13.90;53.10
32097;DHT22;18610;49.916;8.284;2023-03-01T11:33:01;14.10;53.40
32097;DHT22;18610;49.916;8.284;2023-03-01T11:35:32;14.20;53.10
32097;DHT22;18610;49.916;8.284;2023-03-01T11:38:09;14.40;52.90
32097;DHT22;18610;49.916;8.284;2023-03-01T11:40:44;14.40;51.80
32097;DHT22;18610;49.916;8.284;2023-03-01T11:43:18;14.50;51.90
32097;DHT22;18610;49.916;8.284;2023-03-01T11:45:58;14.60;51.70
32097;DHT22;18610;49.916;8.284;2023-03-01T11:48:45;14.50;51.40
32097;DHT22;18610;49.916;8.284;2023-03-01T11:51:20;14.60;50.90
32097;DHT22;18610;49.916;8.284;2023-03-01T11:53:57;14.60;51.30
32097;DHT22;18610;49.916;8.284;2023-03-01T11:56:30;14.60;50.90
32097;DHT22;18610;49.916;8.284;2023-03-01T11:59:30;14.80;50.70
32097;DHT22;18610;49.916;8.284;2023-03-01T12:05:18;15.00;50.80
32097;DHT22;18610;49.916;8.284;2023-03-01T12:07:53;15.20;50.20
32097;DHT22;18610;49.916;8.284;2023-03-01T12:10:23;15.50;49.90
32097;DHT22;18610;49.916;8.284;2023-03-01T12:13:18;15.60;48.80
32097;DHT22;18610;49.916;8.284;2023-03-01T12:16:02;15.70;48.60
32097;DHT22;18610;49.916;8.284;2023-03-01T12:21:30;15.80;47.70
32097;DHT22;18610;49.916;8.284;2023-03-01T12:24:10;15.90;47.60
32097;DHT22;18610;49.916;8.284;2023-03-01T12:26:46;15.60;46.90
32097;DHT22;18610;49.916;8.284;2023-03-01T12:29:25;15.70;47.60
32097;DHT22;18610;49.916;8.284;2023-03-01T12:32:13;15.80;47.50
32097;DHT22;18610;49.916;8.284;2023-03-01T12:37:45;16.10;47.60
32097;DHT22;18610;49.916;8.284;2023-03-01T12:40:27;16.30;46.70
32097;DHT22;18610;49.916;8.284;2023-03-01T12:42:58;16.40;45.50
32097;DHT22;18610;49.916;8.284;2023-03-01T12:45:40;16.60;45.90
32097;DHT22;18610;49.916;8.284;2023-03-01T12:48:21;16.70;45.70
32097;DHT22;18610;49.916;8.284;2023-03-01T12:50:52;16.90;44.60
32097;DHT22;18610;49.916;8.284;2023-03-01T12:53:23;16.90;44.30
32097;DHT22;18610;49.916;8.284;2023-03-01T12:55:53;17.00;44.60
32097;DHT22;18610;49.916;8.284;2023-03-01T12:58:25;17.20;44.20
32097;DHT22;18610;49.916;8.284;2023-03-01T13:01:05;17.30;43.70
32097;DHT22;18610;49.916;8.284;2023-03-01T13:03:48;17.40;43.30
32097;DHT22;18610;49.916;8.284;2023-03-01T13:06:23;17.50;42.90
32097;DHT22;18610;49.916;8.284;2023-03-01T13:08:58;17.60;42.90
32097;DHT22;18610;49.916;8.284;2023-03-01T13:11:28;17.80;42.70
32097;DHT22;18610;49.916;8.284;2023-03-01T13:14:36;17.80;41.20
32097;DHT22;18610;49.916;8.284;2023-03-01T13:17:04;17.80;41.80
32097;DHT22;18610;49.916;8.284;2023-03-01T13:19:30;17.80;42.60
32097;DHT22;18610;49.916;8.284;2023-03-01T13:21:58;17.90;42.20
32097;DHT22;18610;49.916;8.284;2023-03-01T13:24:27;18.00;42.00
32097;DHT22;18610;49.916;8.284;2023-03-01T13:27:18;18.00;41.10
32097;DHT22;18610;49.916;8.284;2023-03-01T13:29:53;18.00;41.50
32097;DHT22;18610;49.916;8.284;2023-03-01T13:32:22;18.00;41.00
32097;DHT22;18610;49.916;8.284;2023-03-01T13:34:56;18.00;40.90
32097;DHT22;18610;49.916;8.284;2023-03-01T13:37:29;18.20;40.50
32097;DHT22;18610;49.916;8.284;2023-03-01T13:39:57;18.20;40.60
32097;DHT22;18610;49.916;8.284;2023-03-01T13:42:43;18.20;40.20
32097;DHT22;18610;49.916;8.284;2023-03-01T13:45:22;18.30;39.60
32097;DHT22;18610;49.916;8.284;2023-03-01T13:47:54;18.30;40.10
32097;DHT22;18610;49.916;8.284;2023-03-01T13:50:25;18.40;40.10
32097;DHT22;18610;49.916;8.284;2023-03-01T13:52:57;18.50;39.50
32097;DHT22;18610;49.916;8.284;2023-03-01T13:55:30;18.60;38.90
32097;DHT22;18610;49.916;8.284;2023-03-01T13:58:00;18.50;38.40
32097;DHT22;18610;49.916;8.284;2023-03-01T14:00:35;18.60;38.20
32097;DHT22;18610;49.916;8.284;2023-03-01T14:03:04;18.70;38.00
32097;DHT22;18610;49.916;8.284;2023-03-01T14:05:32;18.80;38.60
32097;DHT22;18610;49.916;8.284;2023-03-01T14:07:59;18.90;39.00
32097;DHT22;18610;49.916;8.284;2023-03-01T14:10:30;19.00;38.70
32097;DHT22;18610;49.916;8.284;2023-03-01T14:13:09;19.00;38.00
32097;DHT22;18610;49.916;8.284;2023-03-01T14:15:45;18.90;37.70
32097;DHT22;18610;49.916;8.284;2023-03-01T14:18:21;18.90;37.70
32097;DHT22;18610;49.916;8.284;2023-03-01T14:20:51;18.90;37.80
32097;DHT22;18610;49.916;8.284;2023-03-01T14:23:21;19.10;37.90
32097;DHT22;18610;49.916;8.284;2023-03-01T14:25:49;19.30;37.50
32097;DHT22;18610;49.916;8.284;2023-03-01T14:28:18;19.30;37.40
32097;DHT22;18610;49.916;8.284;2023-03-01T14:30:48;19.40;36.90
32097;DHT22;18610;49.916;8.284;2023-03-01T14:33:24;19.50;36.90
32097;DHT22;18610;49.916;8.284;2023-03-01T14:35:56;19.60;36.90
32097;DHT22;18610;49.916;8.284;2023-03-01T14:38:29;19.70;36.60
32097;DHT22;18610;49.916;8.284;2023-03-01T14:41:00;19.80;36.20
32097;DHT22;18610;49.916;8.284;2023-03-01T14:43:29;19.80;36.30
32097;DHT22;18610;49.916;8.284;2023-03-01T14:45:58;19.90;36.40
32097;DHT22;18610;49.916;8.284;2023-03-01T14:48:26;19.80;36.10
32097;DHT22;18610;49.916;8.284;2023-03-01T14:50:53;19.70;36.30
32097;DHT22;18610;49.916;8.284;2023-03-01T14:53:22;19.60;35.70
32097;DHT22;18610;49.916;8.284;2023-03-01T14:55:52;19.40;36.10
32097;DHT22;18610;49.916;8.284;2023-03-01T14:58:21;19.50;36.40
32097;DHT22;18610;49.916;8.284;2023-03-01T15:00:51;19.50;36.30
32097;DHT22;18610;49.916;8.284;2023-03-01T15:03:25;19.80;36.60
32097;DHT22;18610;49.916;8.284;2023-03-01T15:05:52;19.90;35.90
32097;DHT22;18610;49.916;8.284;2023-03-01T15:08:22;19.90;35.60
32097;DHT22;18610;49.916;8.284;2023-03-01T15:10:57;20.00;36.50
32097;DHT22;18610;49.916;8.284;2023-03-01T15:13:28;20.00;35.40
32097;DHT22;18610;49.916;8.284;2023-03-01T15:16:02;20.10;35.70
32097;DHT22;18610;49.916;8.284;2023-03-01T15:18:32;20.30;35.70
32097;DHT22;18610;49.916;8.284;2023-03-01T15:21:06;20.40;35.50
32097;DHT22;18610;49.916;8.284;2023-03-01T15:23:34;20.50;34.60
32097;DHT22;18610;49.916;8.284;2023-03-01T15:26:02;20.50;34.70
32097;DHT22;18610;49.916;8.284;2023-03-01T15:28:31;20.60;34.90
32097;DHT22;18610;49.916;8.284;2023-03-01T15:31:03;20.60;34.60
32097;DHT22;18610;49.916;8.284;2023-03-01T15:33:37;20.60;34.50
32097;DHT22;18610;49.916;8.284;2023-03-01T15:36:31;20.70;34.30
32097;DHT22;18610;49.916;8.284;2023-03-01T15:39:00;20.90;34.30
32097;DHT22;18610;49.916;8.284;2023-03-01T15:41:30;21.20;33.70
32097;DHT22;18610;49.916;8.284;2023-03-01T15:43:58;21.40;33.60
32097;DHT22;18610;49.916;8.284;2023-03-01T15:46:27;21.30;33.00
32097;DHT22;18610;49.916;8.284;2023-03-01T15:48:57;21.20;32.90
32097;DHT22;18610;49.916;8.284;2023-03-01T15:51:30;21.30;33.10
32097;DHT22;18610;49.916;8.284;2023-03-01T15:54:00;21.20;33.30
32097;DHT22;18610;49.916;8.284;2023-03-01T15:56:27;21.20;33.50
32097;DHT22;18610;49.916;8.284;2023-03-01T15:58:58;21.20;33.00
32097;DHT22;18610;49.916;8.284;2023-03-01T16:01:25;21.10;33.00
32097;DHT22;18610;49.916;8.284;2023-03-01T16:03:52;21.00;33.20
32097;DHT22;18610;49.916;8.284;2023-03-01T16:06:20;21.10;33.10
32097;DHT22;18610;49.916;8.284;2023-03-01T16:08:47;21.30;32.90